createdAt,value
2023-08-08T00:01:44.164Z,82.95
2023-08-08T00:11:51.259Z,82.72
2023-08-08T00:21:56.677Z,82.54
2023-08-08T00:32:05.040Z,82.56
2023-08-08T00:42:11.747Z,82.40
2023-08-08T00:52:19.185Z,82.29
2023-08-08T01:02:26.419Z,82.38
2023-08-08T01:12:34.060Z,82.28
2023-08-08T01:22:48.064Z,82.23
2023-08-08T01:32:55.330Z,82.23
2023-08-08T01:43:02.924Z,82.22
2023-08-08T01:53:10.775Z,82.06
2023-08-08T02:03:17.753Z,82.07
2023-08-08T02:13:24.924Z,82.32
2023-08-08T02:23:31.782Z,82.33
2023-08-08T02:33:38.929Z,82.44
2023-08-08T02:43:46.481Z,82.50
2023-08-08T02:53:51.968Z,82.64
2023-08-08T03:03:58.998Z,82.71
2023-08-08T03:14:06.343Z,82.90
2023-08-08T03:24:13.470Z,83.08
2023-08-08T03:34:20.388Z,83.16
2023-08-08T03:44:27.854Z,83.07
2023-08-08T03:54:35.360Z,83.20
2023-08-08T04:04:41.823Z,83.27
2023-08-08T04:14:49.019Z,83.38
2023-08-08T04:24:56.320Z,82.93
2023-08-08T04:35:03.458Z,82.82
2023-08-08T04:45:11.236Z,82.37
2023-08-08T04:55:18.152Z,81.42
2023-08-08T05:05:25.487Z,79.63
2023-08-08T05:15:30.283Z,79.71
2023-08-08T05:25:37.655Z,78.84
2023-08-08T05:35:43.223Z,76.85
2023-08-08T05:45:50.194Z,75.91
2023-08-08T05:55:58.257Z,75.98
2023-08-08T06:06:06.043Z,75.31
2023-08-08T06:16:13.387Z,74.93
2023-08-08T06:26:22.514Z,74.84
2023-08-08T06:36:30.337Z,73.25
2023-08-08T06:46:37.666Z,70.53
2023-08-08T06:56:43.702Z,67.88
2023-08-08T07:06:51.011Z,66.11
2023-08-08T07:27:01.938Z,67.30
2023-08-08T07:37:09.337Z,66.74
2023-08-08T07:47:16.599Z,66.82
2023-08-08T07:57:23.781Z,66.27
2023-08-08T08:07:30.990Z,66.65
2023-08-08T08:17:38.352Z,66.47
2023-08-08T08:27:45.923Z,65.29
2023-08-08T08:37:52.997Z,65.43
2023-08-08T08:48:01.480Z,65.78
2023-08-08T08:58:06.213Z,66.18
2023-08-08T09:08:13.091Z,67.15
2023-08-08T09:18:19.700Z,66.10
2023-08-08T09:28:25.856Z,64.32
2023-08-08T09:38:32.082Z,64.15
2023-08-08T09:48:37.164Z,62.32
2023-08-08T09:58:46.194Z,59.90
2023-08-08T10:08:54.215Z,59.04
2023-08-08T10:19:00.539Z,56.32
2023-08-08T10:29:05.565Z,55.86
2023-08-08T10:49:21.497Z,55.09
2023-08-08T10:59:29.362Z,53.86
2023-08-08T11:09:34.988Z,51.80
2023-08-08T11:19:42.428Z,52.22
2023-08-08T11:29:53.988Z,52.07
2023-08-08T11:40:01.980Z,51.70
2023-08-08T11:50:11.991Z,51.93
2023-08-08T12:00:17.188Z,51.01
2023-08-08T12:10:21.727Z,49.74
2023-08-08T12:20:30.824Z,49.09
2023-08-08T12:30:37.718Z,48.09
2023-08-08T12:40:45.598Z,48.50
2023-08-08T12:50:52.550Z,49.08
2023-08-08T13:00:59.524Z,49.25
2023-08-08T13:11:07.185Z,50.09
2023-08-08T13:21:14.824Z,50.19
2023-08-08T13:31:21.788Z,49.99
2023-08-08T13:41:28.709Z,50.33
2023-08-08T13:51:35.709Z,50.34
2023-08-08T14:01:44.725Z,50.47
2023-08-08T14:11:52.464Z,50.27
2023-08-08T14:22:01.096Z,50.66
2023-08-08T14:32:08.443Z,50.96
2023-08-08T14:42:14.775Z,50.21
2023-08-08T14:52:20.653Z,50.24
2023-08-08T15:02:28.218Z,51.05
2023-08-08T15:12:34.793Z,51.40
2023-08-08T15:22:41.956Z,51.43
2023-08-08T15:32:49.499Z,51.08
2023-08-08T15:42:57.016Z,51.38
2023-08-08T15:53:03.059Z,51.63
2023-08-08T16:03:08.218Z,51.58
2023-08-08T16:13:14.360Z,51.72
2023-08-08T16:23:20.503Z,52.07
2023-08-08T16:33:27.582Z,52.18
2023-08-08T16:43:39.953Z,52.56
2023-08-08T16:53:46.947Z,52.79
2023-08-08T17:03:53.353Z,53.09
2023-08-08T17:14:01.322Z,53.40
2023-08-08T17:24:06.448Z,53.81
2023-08-08T17:34:14.775Z,54.46
2023-08-08T17:44:22.182Z,55.15
2023-08-08T17:54:29.727Z,55.80
2023-08-08T18:04:35.386Z,56.37
2023-08-08T18:14:42.256Z,57.31
2023-08-08T18:24:49.528Z,58.39
2023-08-08T18:34:56.825Z,59.41
2023-08-08T18:45:05.356Z,60.14
2023-08-08T18:55:10.346Z,60.67
2023-08-08T19:05:17.655Z,61.64
2023-08-08T19:15:25.952Z,62.46
2023-08-08T19:25:31.740Z,63.12
2023-08-08T19:35:37.584Z,63.80
2023-08-08T19:45:44.650Z,64.56
2023-08-08T19:55:51.481Z,65.80
2023-08-08T20:05:57.299Z,66.83
2023-08-08T20:16:03.852Z,67.61
2023-08-08T20:26:11.321Z,68.65
2023-08-08T20:36:19.364Z,70.26
2023-08-08T20:46:27.409Z,71.56
2023-08-08T20:56:35.185Z,72.73
2023-08-08T21:06:43.554Z,73.56
2023-08-08T21:16:51.160Z,73.90
2023-08-08T21:26:58.742Z,74.17
2023-08-08T21:37:05.463Z,73.73
2023-08-08T21:47:11.142Z,74.03
2023-08-08T21:57:16.995Z,74.17
2023-08-08T22:07:24.021Z,74.57
2023-08-08T22:17:31.343Z,75.13
2023-08-08T22:27:36.851Z,75.64
2023-08-08T22:37:42.548Z,75.58
2023-08-08T22:47:48.553Z,75.90
2023-08-08T22:57:56.028Z,75.82
2023-08-08T23:08:06.121Z,76.18
2023-08-08T23:18:13.162Z,76.16
2023-08-08T23:28:20.124Z,76.39
2023-08-08T23:38:25.702Z,76.63
2023-08-08T23:48:31.788Z,77.06
2023-08-08T23:58:37.986Z,77.19
